HAAB

Addis Ababa Bole International Airport

Addis Ababa, Ethiopia
METAR HAAB 231300Z 10012KT 9999 BKN025 24/06 Q1020
Observed Flight Rules
Feb-23 @ 13:00 UTC (2 hours ago) Marginal Visual Flight Rules
Wind Visibility Clouds
100° at 12 knots 10,000+ meters
  • Broken at 2,500' AGL
Temperatures Readings
Current 24°C / 75°F
Dewpoint 6°C / 43°F
Humidity 31%
Altimeter 30.12" Hg
Pressure 1020 hPa
Elevation 2355
METAR HAAB 231300Z 10012KT 9999 BKN025 24/06 Q1020
Observed Flight Rules
Feb-23 @ 13:00 UTC
(2 hours ago)
MVFR
Wind Visibility
100° at 12 knots 10,000+ meters
Clouds
  • Broken at 2,500' AGL
Temperature Dewpoint
24°C / 75°F 6°C / 43°F
Humidity Altimeter Pressure
31% 30.12" Hg 1020 hPa